createdAt,value
2022-11-05T00:04:08.913Z,18.06
2022-11-05T00:09:12.427Z,18.04
2022-11-05T00:14:16.016Z,18.04
2022-11-05T00:19:20.369Z,18.06
2022-11-05T00:24:24.807Z,18.10
2022-11-05T00:29:28.150Z,18.09
2022-11-05T00:34:31.209Z,18.04
2022-11-05T00:39:34.623Z,18.02
2022-11-05T00:44:51.572Z,18.01
2022-11-05T00:49:55.106Z,17.99
2022-11-05T00:54:58.768Z,17.99
2022-11-05T01:00:01.953Z,18.01
2022-11-05T01:05:05.981Z,18.02
2022-11-05T01:10:09.394Z,18.03
2022-11-05T01:15:13.360Z,18.06
2022-11-05T01:20:17.285Z,18.06
2022-11-05T01:25:21.122Z,18.06
2022-11-05T01:30:24.832Z,18.09
2022-11-05T01:35:28.150Z,18.09
2022-11-05T01:40:31.558Z,18.09
2022-11-05T01:45:35.408Z,18.08
2022-11-05T01:50:47.713Z,18.08
2022-11-05T01:56:07.231Z,18.11
2022-11-05T02:01:12.626Z,18.12
2022-11-05T02:06:17.687Z,18.06
2022-11-05T02:11:21.354Z,18.04
2022-11-05T02:16:43.993Z,18.05
2022-11-05T02:22:10.133Z,18.02
2022-11-05T02:27:21.404Z,18.04
2022-11-05T02:32:46.830Z,18.04
2022-11-05T02:37:55.532Z,18.04
2022-11-05T02:43:09.146Z,18.04
2022-11-05T02:48:36.548Z,18.03
2022-11-05T02:54:03.368Z,18.05
2022-11-05T02:59:06.939Z,18.01
2022-11-05T03:04:13.528Z,18.06
2022-11-05T03:09:52.436Z,18.01
2022-11-05T03:14:58.568Z,17.96
2022-11-05T03:20:13.983Z,17.90
2022-11-05T03:25:21.881Z,17.89
2022-11-05T03:30:25.950Z,17.87
2022-11-05T03:35:35.593Z,17.87
2022-11-05T03:40:40.889Z,17.83
2022-11-05T03:45:51.620Z,17.81
2022-11-05T03:51:08.894Z,17.79
2022-11-05T03:56:27.093Z,17.80
2022-11-05T04:01:31.019Z,17.77
2022-11-05T04:06:35.414Z,17.73
2022-11-05T04:11:38.627Z,17.78
2022-11-05T04:16:42.132Z,17.81
2022-11-05T04:21:45.402Z,17.85
2022-11-05T04:26:48.916Z,17.88
2022-11-05T04:31:52.668Z,17.92
2022-11-05T04:36:55.669Z,17.96
2022-11-05T04:41:59.527Z,18.05
2022-11-05T04:47:02.878Z,18.15
2022-11-05T04:52:06.010Z,18.24
2022-11-05T04:57:09.064Z,18.30
2022-11-05T05:02:12.455Z,18.38
2022-11-05T05:07:16.122Z,18.43
2022-11-05T05:12:19.073Z,18.44
2022-11-05T05:17:22.436Z,18.52
2022-11-05T05:22:27.440Z,18.62
2022-11-05T05:27:31.637Z,18.73
2022-11-05T05:32:35.041Z,18.88
2022-11-05T05:37:38.193Z,19.13
2022-11-05T05:42:43.358Z,19.81
2022-11-05T05:47:47.539Z,20.24
2022-11-05T05:52:50.989Z,20.26
2022-11-05T05:57:54.716Z,20.36
2022-11-05T06:02:58.002Z,20.38
2022-11-05T06:08:01.749Z,20.59
2022-11-05T06:13:05.104Z,21.02
2022-11-05T06:18:08.429Z,21.30
2022-11-05T06:23:12.408Z,21.17
2022-11-05T06:28:16.798Z,21.12
2022-11-05T06:33:20.542Z,21.28
2022-11-05T06:38:24.276Z,21.35
2022-11-05T06:43:30.834Z,21.65
2022-11-05T06:48:38.912Z,22.08
2022-11-05T06:53:42.260Z,22.37
2022-11-05T06:58:45.891Z,22.34
2022-11-05T07:03:49.616Z,22.19
2022-11-05T07:08:53.124Z,21.96
2022-11-05T07:13:57.198Z,21.81
2022-11-05T07:19:00.881Z,21.76
2022-11-05T07:24:04.573Z,21.76
2022-11-05T07:29:08.239Z,21.84
2022-11-05T07:34:12.112Z,21.90
2022-11-05T07:39:15.491Z,21.93
2022-11-05T07:44:19.298Z,21.94
2022-11-05T07:49:23.238Z,21.97
2022-11-05T07:54:26.728Z,22.00
2022-11-05T07:59:30.231Z,21.97
2022-11-05T08:04:33.538Z,21.96
2022-11-05T08:09:36.952Z,21.93
2022-11-05T08:14:40.345Z,21.93
2022-11-05T08:19:44.283Z,21.95
2022-11-05T08:24:47.740Z,22.00
2022-11-05T08:29:51.294Z,22.01
2022-11-05T08:34:55.495Z,22.00
2022-11-05T08:39:58.913Z,22.05
2022-11-05T08:45:02.298Z,22.15
2022-11-05T08:50:06.698Z,22.24
2022-11-05T08:55:10.123Z,22.12
2022-11-05T09:00:15.093Z,22.21
2022-11-05T09:05:18.577Z,22.32
2022-11-05T09:10:21.922Z,22.39
2022-11-05T09:15:25.610Z,22.45
2022-11-05T09:20:29.434Z,22.51
2022-11-05T09:25:35.933Z,22.50
2022-11-05T09:30:43.377Z,22.51
2022-11-05T09:35:47.127Z,22.57
2022-11-05T09:40:56.098Z,22.61
2022-11-05T09:46:04.197Z,22.70
2022-11-05T09:51:11.590Z,22.71
2022-11-05T09:56:30.799Z,22.71
2022-11-05T10:01:37.371Z,22.73
2022-11-05T10:07:03.823Z,22.78
2022-11-05T10:12:12.617Z,22.82
2022-11-05T10:17:26.586Z,22.77
2022-11-05T10:22:30.356Z,22.73
2022-11-05T10:27:37.376Z,22.68
2022-11-05T10:32:44.285Z,22.69
2022-11-05T10:37:52.065Z,22.63
2022-11-05T10:43:06.771Z,22.60
2022-11-05T10:48:31.779Z,22.57
2022-11-05T10:53:38.006Z,22.58
2022-11-05T10:58:55.062Z,22.60
2022-11-05T11:04:12.343Z,22.55
2022-11-05T11:09:38.760Z,22.59
2022-11-05T11:14:42.127Z,22.65
2022-11-05T11:19:45.615Z,22.60
2022-11-05T11:24:52.929Z,22.60
2022-11-05T11:30:01.612Z,22.59
2022-11-05T11:35:18.644Z,22.60
2022-11-05T11:40:31.621Z,22.60
2022-11-05T11:45:53.531Z,22.63
2022-11-05T11:50:58.600Z,22.57
2022-11-05T11:56:04.073Z,22.45
2022-11-05T12:01:26.234Z,22.46
2022-11-05T12:06:36.466Z,22.50
2022-11-05T12:11:50.984Z,22.39
2022-11-05T12:17:11.396Z,22.37
2022-11-05T12:22:39.991Z,22.47
2022-11-05T12:28:01.517Z,22.47
2022-11-05T12:33:16.849Z,22.43
2022-11-05T12:38:30.625Z,22.37
2022-11-05T12:43:58.983Z,22.38
2022-11-05T12:49:31.519Z,22.27
2022-11-05T12:55:02.459Z,22.16
2022-11-05T13:00:17.168Z,22.13
2022-11-05T13:05:35.579Z,22.06
2022-11-05T13:10:46.889Z,21.98
2022-11-05T13:15:54.899Z,21.90
2022-11-05T13:21:01.529Z,21.85
2022-11-05T13:26:19.566Z,21.79
2022-11-05T13:31:32.292Z,21.72
2022-11-05T13:36:57.443Z,21.68
2022-11-05T13:42:12.779Z,21.65
2022-11-05T13:47:45.831Z,21.58
2022-11-05T13:53:43.115Z,21.50
2022-11-05T13:59:20.581Z,21.47
2022-11-05T14:05:01.320Z,21.45
2022-11-05T14:10:26.119Z,21.31
2022-11-05T14:15:31.246Z,21.21
2022-11-05T14:20:43.691Z,21.16
2022-11-05T14:26:11.477Z,21.07
2022-11-05T14:31:41.108Z,21.01
2022-11-05T14:37:14.734Z,20.90
2022-11-05T14:42:29.664Z,20.83
2022-11-05T14:47:38.168Z,20.76
2022-11-05T14:52:52.185Z,20.70
2022-11-05T14:57:55.394Z,20.66
2022-11-05T15:03:01.586Z,20.65
2022-11-05T15:08:23.472Z,20.62
2022-11-05T15:13:38.904Z,20.60
2022-11-05T15:18:47.522Z,20.59
2022-11-05T15:23:55.495Z,20.57
2022-11-05T15:29:01.128Z,20.57
2022-11-05T15:34:33.628Z,20.57
2022-11-05T15:39:41.143Z,20.54
2022-11-05T15:44:48.514Z,20.55
2022-11-05T15:49:57.362Z,20.56
2022-11-05T15:55:13.815Z,20.55
2022-11-05T16:00:28.142Z,20.55
2022-11-05T16:05:35.525Z,20.57
2022-11-05T16:10:39.368Z,20.56
2022-11-05T16:15:54.473Z,20.55
2022-11-05T16:21:06.278Z,20.55
2022-11-05T16:27:01.093Z,20.58
2022-11-05T16:32:00.209Z,20.58
2022-11-05T16:37:06.904Z,20.59
2022-11-05T16:42:22.348Z,20.59
2022-11-05T16:47:25.915Z,20.61
2022-11-05T16:52:29.403Z,20.60
2022-11-05T16:57:33.976Z,20.58
2022-11-05T17:02:37.326Z,20.57
2022-11-05T17:07:41.669Z,20.56
2022-11-05T17:12:45.754Z,20.55
2022-11-05T17:17:49.895Z,20.54
2022-11-05T17:22:59.086Z,20.51
2022-11-05T17:28:02.850Z,20.47
2022-11-05T17:33:06.276Z,20.45
2022-11-05T17:38:12.309Z,20.41
2022-11-05T17:43:16.358Z,20.37
2022-11-05T17:48:21.105Z,20.35
2022-11-05T17:53:24.463Z,20.29
2022-11-05T17:58:27.880Z,20.26
2022-11-05T18:03:35.232Z,20.23
2022-11-05T18:08:38.624Z,20.19
2022-11-05T18:13:41.860Z,20.18
2022-11-05T18:18:45.317Z,20.16
2022-11-05T18:23:48.797Z,20.16
2022-11-05T18:28:52.261Z,20.15
2022-11-05T18:33:58.655Z,20.15
2022-11-05T18:39:04.537Z,20.18
2022-11-05T18:44:08.477Z,20.20
2022-11-05T18:49:11.705Z,20.24
2022-11-05T18:54:15.513Z,20.28
2022-11-05T18:59:36.866Z,20.28
2022-11-05T19:04:50.529Z,20.24
2022-11-05T19:10:04.977Z,20.21
2022-11-05T19:15:09.270Z,20.20
2022-11-05T19:20:13.237Z,20.21
2022-11-05T19:25:17.010Z,20.21
2022-11-05T19:30:20.483Z,20.21
2022-11-05T19:35:24.076Z,20.20
2022-11-05T19:40:27.487Z,20.21
2022-11-05T19:45:44.234Z,20.19
2022-11-05T19:50:48.594Z,20.22
2022-11-05T19:55:51.785Z,20.21
2022-11-05T20:00:56.076Z,20.23
2022-11-05T20:06:04.057Z,20.24
2022-11-05T20:11:07.429Z,20.21
2022-11-05T20:16:30.398Z,20.23
2022-11-05T20:21:34.424Z,20.23
2022-11-05T20:26:37.936Z,20.23
2022-11-05T20:31:42.261Z,20.24
2022-11-05T20:36:45.780Z,20.20
2022-11-05T20:41:49.260Z,20.18
2022-11-05T20:46:52.741Z,20.18
2022-11-05T20:51:57.217Z,20.17
2022-11-05T20:57:01.045Z,20.17
2022-11-05T21:02:04.905Z,20.18
2022-11-05T21:07:08.301Z,20.17
2022-11-05T21:12:11.458Z,20.18
2022-11-05T21:17:14.714Z,20.16
2022-11-05T21:22:18.577Z,20.14
2022-11-05T21:27:21.968Z,20.11
2022-11-05T21:32:26.355Z,20.09
2022-11-05T21:37:29.729Z,20.07
2022-11-05T21:42:33.169Z,20.08
2022-11-05T21:47:36.562Z,20.06
2022-11-05T21:52:40.098Z,20.04
2022-11-05T21:57:44.355Z,20.05
2022-11-05T22:02:47.953Z,20.02
2022-11-05T22:07:51.407Z,19.99
2022-11-05T22:12:54.995Z,19.96
2022-11-05T22:17:58.946Z,19.99
2022-11-05T22:23:05.368Z,19.98
2022-11-05T22:28:12.561Z,19.96
2022-11-05T22:33:15.784Z,19.95
2022-11-05T22:38:19.043Z,19.96
2022-11-05T22:43:22.446Z,19.96
2022-11-05T22:48:25.953Z,19.96
2022-11-05T22:53:29.990Z,19.95
2022-11-05T22:58:33.762Z,19.97
2022-11-05T23:03:37.611Z,19.97
2022-11-05T23:08:41.032Z,19.97
2022-11-05T23:13:44.121Z,19.98
2022-11-05T23:18:47.205Z,19.97
2022-11-05T23:23:50.462Z,19.99
2022-11-05T23:28:53.925Z,19.99
2022-11-05T23:33:57.373Z,19.97
2022-11-05T23:39:00.835Z,19.96
2022-11-05T23:44:04.693Z,19.96
2022-11-05T23:49:08.327Z,19.92
2022-11-05T23:54:11.814Z,19.90
2022-11-05T23:59:15.430Z,19.89
